createdAt,value
2023-02-05T00:02:09.538Z,-5.48
2023-02-05T00:04:36.882Z,-5.45
2023-02-05T00:07:04.524Z,-5.41
2023-02-05T00:09:31.314Z,-5.37
2023-02-05T00:11:58.998Z,-5.31
2023-02-05T00:14:26.168Z,-5.25
2023-02-05T00:16:54.232Z,-5.17
2023-02-05T00:19:21.512Z,-5.12
2023-02-05T00:21:49.837Z,-5.08
2023-02-05T00:24:17.065Z,-5.06
2023-02-05T00:26:44.700Z,-5.06
2023-02-05T00:29:11.899Z,-5.08
2023-02-05T00:31:39.990Z,-5.06
2023-02-05T00:34:08.254Z,-5.04
2023-02-05T00:36:35.049Z,-4.97
2023-02-05T00:39:02.162Z,-4.89
2023-02-05T00:41:29.027Z,-4.79
2023-02-05T00:43:55.786Z,-4.72
2023-02-05T00:46:22.669Z,-4.65
2023-02-05T00:48:49.788Z,-4.59
2023-02-05T00:51:16.643Z,-4.55
2023-02-05T00:53:43.473Z,-4.52
2023-02-05T00:56:10.615Z,-4.50
2023-02-05T00:58:37.589Z,-4.52
2023-02-05T01:01:04.980Z,-4.53
2023-02-05T01:03:32.767Z,-4.53
2023-02-05T01:05:59.855Z,-4.54
2023-02-05T01:08:26.657Z,-4.53
2023-02-05T01:10:54.364Z,-4.51
2023-02-05T01:13:21.707Z,-4.44
2023-02-05T01:15:49.563Z,-4.37
2023-02-05T01:18:17.072Z,-4.30
2023-02-05T01:20:44.596Z,-4.22
2023-02-05T01:23:12.477Z,-4.15
2023-02-05T01:25:39.325Z,-4.06
2023-02-05T01:28:07.378Z,-3.99
2023-02-05T01:30:34.330Z,-3.93
2023-02-05T01:33:01.772Z,-3.93
2023-02-05T01:35:28.958Z,-3.92
2023-02-05T01:37:55.805Z,-3.89
2023-02-05T01:40:23.181Z,-3.88
2023-02-05T01:42:50.010Z,-3.88
2023-02-05T01:45:51.832Z,-3.83
2023-02-05T01:48:22.851Z,-3.80
2023-02-05T01:50:52.365Z,-3.78
2023-02-05T01:53:24.213Z,-3.79
2023-02-05T01:55:56.590Z,-3.78
2023-02-05T01:58:23.860Z,-3.78
2023-02-05T02:00:50.953Z,-3.76
2023-02-05T02:03:18.297Z,-3.75
2023-02-05T02:05:45.033Z,-3.74
2023-02-05T02:08:14.720Z,-3.73
2023-02-05T02:10:44.756Z,-3.73
2023-02-05T02:13:13.334Z,-3.73
2023-02-05T02:15:41.363Z,-3.74
2023-02-05T02:18:26.762Z,-3.75
2023-02-05T02:21:06.948Z,-3.73
2023-02-05T02:23:49.126Z,-3.72
2023-02-05T02:26:44.435Z,-3.71
2023-02-05T02:29:18.898Z,-3.73
2023-02-05T02:31:52.084Z,-3.72
2023-02-05T02:34:24.005Z,-3.73
2023-02-05T02:36:58.166Z,-3.74
2023-02-05T02:39:30.811Z,-3.74
2023-02-05T02:42:03.941Z,-3.73
2023-02-05T02:44:35.511Z,-3.73
2023-02-05T02:47:06.985Z,-3.74
2023-02-05T02:49:40.481Z,-3.73
2023-02-05T02:52:11.100Z,-3.72
2023-02-05T02:54:41.095Z,-3.72
2023-02-05T02:57:11.385Z,-3.72
2023-02-05T02:59:42.118Z,-3.70
2023-02-05T03:02:12.448Z,-3.69
2023-02-05T03:04:42.303Z,-3.70
2023-02-05T03:07:13.663Z,-3.69
2023-02-05T03:09:52.146Z,-3.68
2023-02-05T03:12:20.219Z,-3.68
2023-02-05T03:14:47.409Z,-3.67
2023-02-05T03:17:18.708Z,-3.68
2023-02-05T03:19:46.646Z,-3.68
2023-02-05T03:22:13.429Z,-3.69
2023-02-05T03:24:40.683Z,-3.72
2023-02-05T03:27:08.063Z,-3.73
2023-02-05T03:29:39.280Z,-3.77
2023-02-05T03:32:23.008Z,-3.77
2023-02-05T03:35:06.108Z,-3.77
2023-02-05T03:37:42.510Z,-3.77
2023-02-05T03:40:20.088Z,-3.77
2023-02-05T03:42:54.652Z,-3.74
2023-02-05T03:45:34.540Z,-3.71
2023-02-05T03:48:17.853Z,-3.70
2023-02-05T03:50:50.261Z,-3.68
2023-02-05T03:53:24.801Z,-3.66
2023-02-05T03:55:56.801Z,-3.66
2023-02-05T03:58:28.660Z,-3.67
2023-02-05T04:00:55.712Z,-3.67
2023-02-05T04:03:23.382Z,-3.67
2023-02-05T04:05:50.978Z,-3.71
2023-02-05T04:08:18.837Z,-3.70
2023-02-05T04:10:47.704Z,-3.70
2023-02-05T04:13:14.594Z,-3.69
2023-02-05T04:15:41.574Z,-3.69
2023-02-05T04:18:09.424Z,-3.68
2023-02-05T04:20:36.419Z,-3.70
2023-02-05T04:23:03.886Z,-3.73
2023-02-05T04:25:31.418Z,-3.73
2023-02-05T04:28:00.912Z,-3.76
2023-02-05T04:30:28.402Z,-3.78
2023-02-05T04:32:55.407Z,-3.77
2023-02-05T04:35:22.297Z,-3.76
2023-02-05T04:37:49.588Z,-3.77
2023-02-05T04:40:17.672Z,-3.77
2023-02-05T04:42:45.416Z,-3.78
2023-02-05T04:45:12.652Z,-3.80
2023-02-05T04:47:39.805Z,-3.82
2023-02-05T04:50:07.236Z,-3.83
2023-02-05T04:52:34.025Z,-3.84
2023-02-05T04:55:00.896Z,-3.85
2023-02-05T04:57:27.889Z,-3.85
2023-02-05T04:59:54.736Z,-3.85
2023-02-05T05:02:23.182Z,-3.86
2023-02-05T05:04:50.232Z,-3.86
2023-02-05T05:07:17.036Z,-3.84
2023-02-05T05:09:43.797Z,-3.85
2023-02-05T05:12:10.940Z,-3.86
2023-02-05T05:14:38.799Z,-3.87
2023-02-05T05:17:05.847Z,-3.90
2023-02-05T05:19:32.762Z,-3.93
2023-02-05T05:21:59.821Z,-3.93
2023-02-05T05:24:26.629Z,-3.92
2023-02-05T05:26:53.436Z,-3.91
2023-02-05T05:29:20.227Z,-3.89
2023-02-05T05:31:47.160Z,-3.86
2023-02-05T05:34:14.054Z,-3.86
2023-02-05T05:36:43.701Z,-3.84
2023-02-05T05:39:28.592Z,-3.84
2023-02-05T05:42:13.092Z,-3.82
2023-02-05T05:44:40.209Z,-3.81
2023-02-05T05:47:07.222Z,-3.82
2023-02-05T05:49:34.075Z,-3.79
2023-02-05T05:52:01.059Z,-3.78
2023-02-05T05:54:27.985Z,-3.78
2023-02-05T05:56:54.714Z,-3.77
2023-02-05T05:59:21.492Z,-3.75
2023-02-05T06:01:48.297Z,-3.78
2023-02-05T06:04:15.107Z,-3.75
2023-02-05T06:06:42.647Z,-3.76
2023-02-05T06:09:09.441Z,-3.77
2023-02-05T06:11:36.348Z,-3.81
2023-02-05T06:14:03.129Z,-3.81
2023-02-05T06:16:29.946Z,-3.84
2023-02-05T06:18:58.001Z,-3.86
2023-02-05T06:21:25.123Z,-3.88
2023-02-05T06:23:51.884Z,-3.87
2023-02-05T06:26:18.772Z,-3.88
2023-02-05T06:28:45.552Z,-3.88
2023-02-05T06:31:12.320Z,-3.89
2023-02-05T06:33:39.184Z,-3.88
2023-02-05T06:36:06.921Z,-3.87
2023-02-05T06:38:33.696Z,-3.88
2023-02-05T06:41:00.675Z,-3.90
2023-02-05T06:43:27.698Z,-3.90
2023-02-05T06:45:55.698Z,-3.90
2023-02-05T06:48:22.546Z,-3.92
2023-02-05T06:50:49.514Z,-3.92
2023-02-05T06:53:16.282Z,-3.89
2023-02-05T06:55:43.252Z,-3.86
2023-02-05T06:58:10.004Z,-3.82
2023-02-05T07:00:37.217Z,-3.79
2023-02-05T07:03:04.277Z,-3.77
2023-02-05T07:05:31.536Z,-3.76
2023-02-05T07:07:59.866Z,-3.74
2023-02-05T07:10:26.803Z,-3.70
2023-02-05T07:12:53.587Z,-3.68
2023-02-05T07:15:20.784Z,-3.64
2023-02-05T07:17:47.603Z,-3.59
2023-02-05T07:20:16.776Z,-3.56
2023-02-05T07:22:43.732Z,-3.56
2023-02-05T07:25:11.137Z,-3.52
2023-02-05T07:27:37.904Z,-3.49
2023-02-05T07:30:05.275Z,-3.45
2023-02-05T07:32:32.065Z,-3.44
2023-02-05T07:34:59.188Z,-3.42
2023-02-05T07:37:26.236Z,-3.39
2023-02-05T07:39:53.388Z,-3.37
2023-02-05T07:42:20.529Z,-3.33
2023-02-05T07:44:49.942Z,-3.25
2023-02-05T07:47:16.712Z,-3.10
2023-02-05T07:49:43.835Z,-2.96
2023-02-05T07:52:10.768Z,-2.84
2023-02-05T07:54:37.546Z,-2.71
2023-02-05T07:57:07.189Z,-2.59
2023-02-05T07:59:33.959Z,-2.51
2023-02-05T08:02:00.808Z,-2.47
2023-02-05T08:04:27.874Z,-2.39
2023-02-05T08:06:54.880Z,-2.35
2023-02-05T08:09:21.872Z,-2.31
2023-02-05T08:11:49.047Z,-2.25
2023-02-05T08:14:15.965Z,-2.19
2023-02-05T08:16:42.956Z,-2.16
2023-02-05T08:19:14.618Z,-2.11
2023-02-05T08:21:41.480Z,-2.06
2023-02-05T08:24:08.729Z,-2.01
2023-02-05T08:26:36.058Z,-1.98
2023-02-05T08:29:03.172Z,-1.98
2023-02-05T08:31:30.098Z,-1.94
2023-02-05T08:34:00.093Z,-1.91
2023-02-05T08:36:27.304Z,-1.90
2023-02-05T08:38:54.172Z,-1.88
2023-02-05T08:41:21.186Z,-1.88
2023-02-05T08:43:50.002Z,-1.88
2023-02-05T08:46:19.387Z,-1.92
2023-02-05T08:48:46.703Z,-1.94
2023-02-05T08:51:14.736Z,-1.95
2023-02-05T08:53:41.734Z,-1.99
2023-02-05T08:56:10.665Z,-1.99
2023-02-05T08:58:37.946Z,-1.96
2023-02-05T09:01:06.621Z,-1.93
2023-02-05T09:03:33.897Z,-1.88
2023-02-05T09:06:01.648Z,-1.82
2023-02-05T09:08:31.114Z,-1.74
2023-02-05T09:10:58.357Z,-1.71
2023-02-05T09:13:25.244Z,-1.68
2023-02-05T09:15:52.145Z,-1.61
2023-02-05T09:18:19.153Z,-1.53
2023-02-05T09:20:47.596Z,-1.41
2023-02-05T09:23:15.912Z,-1.26
2023-02-05T09:25:43.613Z,-1.12
2023-02-05T09:28:12.480Z,-0.99
2023-02-05T09:30:40.159Z,-0.92
2023-02-05T09:33:07.299Z,-0.92
2023-02-05T09:35:36.031Z,-0.93
2023-02-05T09:38:03.460Z,-0.94
2023-02-05T09:40:35.506Z,-0.95
2023-02-05T09:43:09.669Z,-0.98
2023-02-05T09:45:46.475Z,-1.01
2023-02-05T09:48:31.903Z,-1.04
2023-02-05T09:51:00.358Z,-1.11
2023-02-05T09:53:35.132Z,-1.20
2023-02-05T09:56:05.463Z,-1.26
2023-02-05T09:58:37.849Z,-1.33
2023-02-05T10:01:08.555Z,-1.36
2023-02-05T10:03:44.401Z,-1.42
2023-02-05T10:06:24.102Z,-1.49
2023-02-05T10:08:59.032Z,-1.56
2023-02-05T10:11:34.007Z,-1.61
2023-02-05T10:14:12.246Z,-1.64
2023-02-05T10:16:56.152Z,-1.64
2023-02-05T10:19:41.133Z,-1.64
2023-02-05T10:22:18.642Z,-1.63
2023-02-05T10:25:18.123Z,-1.62
2023-02-05T10:27:54.099Z,-1.61
2023-02-05T10:30:29.496Z,-1.58
2023-02-05T10:33:01.687Z,-1.55
2023-02-05T10:35:44.446Z,-1.50
2023-02-05T10:38:17.928Z,-1.43
2023-02-05T10:40:46.715Z,-1.36
2023-02-05T10:43:23.133Z,-1.31
2023-02-05T10:45:50.884Z,-1.29
2023-02-05T10:48:38.250Z,-1.24
2023-02-05T10:51:08.151Z,-1.19
2023-02-05T10:53:36.789Z,-1.12
2023-02-05T10:56:05.844Z,-1.06
2023-02-05T10:58:40.029Z,-0.97
2023-02-05T11:01:08.136Z,-0.87
2023-02-05T11:03:35.849Z,-0.82
2023-02-05T11:06:03.363Z,-0.79
2023-02-05T11:08:39.393Z,-0.77
2023-02-05T11:11:07.896Z,-0.76
2023-02-05T11:13:37.341Z,-0.76
2023-02-05T11:16:09.186Z,-0.75
2023-02-05T11:18:40.857Z,-0.76
2023-02-05T11:21:10.360Z,-0.78
2023-02-05T11:23:40.249Z,-0.77
2023-02-05T11:26:18.292Z,-0.78
2023-02-05T11:28:45.644Z,-0.78
2023-02-05T11:31:28.316Z,-0.76
2023-02-05T11:34:13.252Z,-0.75
2023-02-05T11:36:49.696Z,-0.75
2023-02-05T11:39:29.219Z,-0.74
2023-02-05T11:41:58.738Z,-0.77
2023-02-05T11:44:30.424Z,-0.81
2023-02-05T11:47:00.600Z,-0.87
2023-02-05T11:49:32.424Z,-0.92
2023-02-05T11:52:01.804Z,-0.93
2023-02-05T11:54:32.541Z,-0.93
2023-02-05T11:57:08.660Z,-0.96
2023-02-05T11:59:36.637Z,-0.97
2023-02-05T12:02:32.205Z,-0.97
2023-02-05T12:05:04.217Z,-0.94
2023-02-05T12:07:36.351Z,-0.91
2023-02-05T12:10:03.513Z,-0.89
2023-02-05T12:12:36.587Z,-0.88
2023-02-05T12:15:12.152Z,-0.85
2023-02-05T12:17:43.894Z,-0.80
2023-02-05T12:20:21.649Z,-0.78
2023-02-05T12:23:28.726Z,-0.79
2023-02-05T12:26:18.698Z,-0.77
2023-02-05T12:28:55.491Z,-0.79
2023-02-05T12:31:31.060Z,-0.80
2023-02-05T12:34:18.974Z,-0.80
2023-02-05T12:36:58.397Z,-0.80
2023-02-05T12:39:38.438Z,-0.81
2023-02-05T12:42:16.330Z,-0.85
2023-02-05T12:44:57.289Z,-0.84
2023-02-05T12:47:41.700Z,-0.84
2023-02-05T12:50:24.254Z,-0.84
2023-02-05T12:53:06.264Z,-0.80
2023-02-05T12:55:49.262Z,-0.76
2023-02-05T12:58:20.287Z,-0.78
2023-02-05T13:00:52.967Z,-0.85
2023-02-05T13:03:29.112Z,-0.85
2023-02-05T13:06:01.741Z,-0.83
2023-02-05T13:08:42.863Z,-0.83
2023-02-05T13:11:13.781Z,-0.85
2023-02-05T13:13:48.158Z,-0.86
2023-02-05T13:16:18.321Z,-0.83
2023-02-05T13:18:49.056Z,-0.83
2023-02-05T13:21:37.037Z,-0.82
2023-02-05T13:24:31.890Z,-0.82
2023-02-05T13:27:28.734Z,-0.83
2023-02-05T13:29:56.546Z,-0.84
2023-02-05T13:32:31.204Z,-0.89
2023-02-05T13:34:59.505Z,-0.94
2023-02-05T13:37:52.944Z,-1.00
2023-02-05T13:40:37.308Z,-1.09
2023-02-05T13:43:37.042Z,-1.12
2023-02-05T13:46:19.260Z,-1.17
2023-02-05T13:49:16.074Z,-1.22
2023-02-05T13:51:48.975Z,-1.25
2023-02-05T13:54:54.745Z,-1.28
2023-02-05T13:58:01.128Z,-1.32
2023-02-05T14:00:29.174Z,-1.34
2023-02-05T14:03:05.770Z,-1.35
2023-02-05T14:05:33.805Z,-1.37
2023-02-05T14:08:03.305Z,-1.40
2023-02-05T14:10:32.182Z,-1.41
2023-02-05T14:13:13.196Z,-1.41
2023-02-05T14:15:42.814Z,-1.41
2023-02-05T14:18:12.882Z,-1.43
2023-02-05T14:20:45.696Z,-1.42
2023-02-05T14:23:38.013Z,-1.42
2023-02-05T14:26:13.755Z,-1.42
2023-02-05T14:28:47.710Z,-1.43
2023-02-05T14:31:50.050Z,-1.43
2023-02-05T14:34:48.689Z,-1.46
2023-02-05T14:37:42.398Z,-1.48
2023-02-05T14:40:25.232Z,-1.47
2023-02-05T14:42:57.095Z,-1.47
2023-02-05T14:45:30.011Z,-1.47
2023-02-05T14:47:58.833Z,-1.47
2023-02-05T14:50:29.541Z,-1.47
2023-02-05T14:52:59.612Z,-1.48
2023-02-05T14:55:32.748Z,-1.49
2023-02-05T14:58:04.369Z,-1.53
2023-02-05T15:00:36.353Z,-1.57
2023-02-05T15:03:35.944Z,-1.61
2023-02-05T15:06:09.740Z,-1.64
2023-02-05T15:08:58.968Z,-1.70
2023-02-05T15:11:35.400Z,-1.75
2023-02-05T15:14:37.949Z,-1.81
2023-02-05T15:17:42.552Z,-1.86
2023-02-05T15:20:21.480Z,-1.91
2023-02-05T15:22:52.328Z,-1.92
2023-02-05T15:25:31.542Z,-1.94
2023-02-05T15:28:02.328Z,-1.95
2023-02-05T15:30:31.543Z,-1.97
2023-02-05T15:33:03.434Z,-1.98
2023-02-05T15:35:34.629Z,-1.99
2023-02-05T15:38:11.307Z,-1.99
2023-02-05T15:40:39.702Z,-2.00
2023-02-05T15:43:21.274Z,-2.03
2023-02-05T15:45:49.171Z,-2.05
2023-02-05T15:48:23.793Z,-2.05
2023-02-05T15:50:54.951Z,-2.04
2023-02-05T15:53:33.025Z,-2.03
2023-02-05T15:56:01.260Z,-2.03
2023-02-05T15:58:30.537Z,-2.04
2023-02-05T16:00:58.264Z,-2.04
2023-02-05T16:03:32.582Z,-2.02
2023-02-05T16:05:59.602Z,-2.04
2023-02-05T16:08:28.342Z,-2.04
2023-02-05T16:10:58.233Z,-2.04
2023-02-05T16:13:26.564Z,-2.03
2023-02-05T16:15:59.763Z,-2.01
2023-02-05T16:18:38.638Z,-2.00
2023-02-05T16:21:09.779Z,-2.00
2023-02-05T16:23:41.194Z,-2.00
2023-02-05T16:26:16.380Z,-1.99
2023-02-05T16:28:47.721Z,-2.00
2023-02-05T16:31:20.602Z,-2.00
2023-02-05T16:33:52.013Z,-2.00
2023-02-05T16:36:22.809Z,-2.00
2023-02-05T16:38:55.369Z,-2.00
2023-02-05T16:41:26.961Z,-2.01
2023-02-05T16:43:55.528Z,-2.02
2023-02-05T16:46:32.461Z,-2.02
2023-02-05T16:49:01.720Z,-2.03
2023-02-05T16:51:49.645Z,-2.02
2023-02-05T16:54:31.861Z,-2.02
2023-02-05T16:57:04.398Z,-2.01
2023-02-05T16:59:35.821Z,-2.01
2023-02-05T17:02:03.531Z,-2.00
2023-02-05T17:04:34.855Z,-1.98
2023-02-05T17:07:04.559Z,-1.97
2023-02-05T17:09:37.251Z,-1.97
2023-02-05T17:12:36.496Z,-1.96
2023-02-05T17:15:06.034Z,-1.98
2023-02-05T17:17:33.558Z,-1.99
2023-02-05T17:20:19.116Z,-2.01
2023-02-05T17:23:12.639Z,-2.05
2023-02-05T17:25:42.257Z,-2.09
2023-02-05T17:28:12.521Z,-2.13
2023-02-05T17:30:41.370Z,-2.16
2023-02-05T17:33:11.368Z,-2.19
2023-02-05T17:35:38.238Z,-2.23
2023-02-05T17:38:05.053Z,-2.27
2023-02-05T17:40:32.616Z,-2.30
2023-02-05T17:42:59.640Z,-2.31
2023-02-05T17:45:29.135Z,-2.32
2023-02-05T17:47:55.917Z,-2.34
2023-02-05T17:50:22.883Z,-2.34
2023-02-05T17:52:50.078Z,-2.34
2023-02-05T17:55:18.654Z,-2.34
2023-02-05T17:57:46.511Z,-2.35
2023-02-05T18:00:19.110Z,-2.35
2023-02-05T18:02:46.460Z,-2.35
2023-02-05T18:05:13.814Z,-2.35
2023-02-05T18:07:43.482Z,-2.31
2023-02-05T18:10:16.446Z,-2.29
2023-02-05T18:12:43.506Z,-2.27
2023-02-05T18:15:13.619Z,-2.26
2023-02-05T18:17:41.879Z,-2.27
2023-02-05T18:20:09.911Z,-2.26
2023-02-05T18:22:36.842Z,-2.24
2023-02-05T18:25:03.870Z,-2.21
2023-02-05T18:27:31.514Z,-2.24
2023-02-05T18:29:58.685Z,-2.26
2023-02-05T18:32:25.539Z,-2.29
2023-02-05T18:34:53.102Z,-2.35
2023-02-05T18:37:20.230Z,-2.41
2023-02-05T18:39:48.133Z,-2.49
2023-02-05T18:42:15.434Z,-2.58
2023-02-05T18:44:42.353Z,-2.67
2023-02-05T18:47:10.997Z,-2.77
2023-02-05T18:49:38.121Z,-2.87
2023-02-05T18:52:06.342Z,-2.98
2023-02-05T18:54:33.374Z,-3.10
2023-02-05T18:57:00.406Z,-3.18
2023-02-05T18:59:27.540Z,-3.29
2023-02-05T19:01:54.843Z,-3.34
2023-02-05T19:04:22.010Z,-3.37
2023-02-05T19:06:53.577Z,-3.38
2023-02-05T19:09:21.655Z,-3.39
2023-02-05T19:11:48.914Z,-3.37
2023-02-05T19:14:18.591Z,-3.40
2023-02-05T19:16:47.335Z,-3.41
2023-02-05T19:19:16.367Z,-3.42
2023-02-05T19:21:44.960Z,-3.45
2023-02-05T19:24:12.809Z,-3.49
2023-02-05T19:26:43.525Z,-3.54
2023-02-05T19:29:14.356Z,-3.64
2023-02-05T19:31:41.868Z,-3.71
2023-02-05T19:34:11.277Z,-3.77
2023-02-05T19:36:39.233Z,-3.83
2023-02-05T19:39:07.807Z,-3.90
2023-02-05T19:41:36.993Z,-3.95
2023-02-05T19:44:06.286Z,-4.00
2023-02-05T19:46:35.697Z,-4.04
2023-02-05T19:49:06.175Z,-4.07
2023-02-05T19:51:33.224Z,-4.10
2023-02-05T19:54:03.205Z,-4.13
2023-02-05T19:56:30.646Z,-4.20
2023-02-05T19:58:58.408Z,-4.26
2023-02-05T20:01:26.810Z,-4.29
2023-02-05T20:03:55.088Z,-4.30
2023-02-05T20:06:24.350Z,-4.33
2023-02-05T20:08:51.860Z,-4.33
2023-02-05T20:11:19.099Z,-4.35
2023-02-05T20:13:47.076Z,-4.36
2023-02-05T20:16:16.580Z,-4.39
2023-02-05T20:18:44.627Z,-4.42
2023-02-05T20:21:14.243Z,-4.46
2023-02-05T20:23:41.761Z,-4.48
2023-02-05T20:26:10.528Z,-4.50
2023-02-05T20:28:59.999Z,-4.54
2023-02-05T20:31:34.408Z,-4.60
2023-02-05T20:34:01.677Z,-4.63
2023-02-05T20:36:28.732Z,-4.68
2023-02-05T20:38:59.031Z,-4.71
2023-02-05T20:41:26.293Z,-4.73
2023-02-05T20:43:53.119Z,-4.75
2023-02-05T20:46:20.459Z,-4.80
2023-02-05T20:48:48.699Z,-4.82
2023-02-05T20:51:19.805Z,-4.82
2023-02-05T20:53:47.845Z,-4.82
2023-02-05T20:56:17.298Z,-4.84
2023-02-05T20:58:44.665Z,-4.86
2023-02-05T21:01:13.391Z,-4.87
2023-02-05T21:03:43.422Z,-4.89
2023-02-05T21:06:10.947Z,-4.92
2023-02-05T21:08:40.829Z,-4.93
2023-02-05T21:11:08.027Z,-4.95
2023-02-05T21:13:35.362Z,-4.97
2023-02-05T21:16:04.798Z,-4.98
2023-02-05T21:18:32.932Z,-5.00
2023-02-05T21:21:08.501Z,-5.00
2023-02-05T21:23:35.711Z,-5.00
2023-02-05T21:26:05.874Z,-5.02
2023-02-05T21:28:33.350Z,-5.01
2023-02-05T21:31:08.582Z,-4.98
2023-02-05T21:33:35.958Z,-4.97
2023-02-05T21:36:07.809Z,-5.00
2023-02-05T21:38:37.403Z,-5.03
2023-02-05T21:41:08.881Z,-5.07
2023-02-05T21:43:35.754Z,-5.14
2023-02-05T21:46:05.010Z,-5.21
2023-02-05T21:48:32.098Z,-5.25
2023-02-05T21:51:00.145Z,-5.30
2023-02-05T21:53:26.969Z,-5.35
2023-02-05T21:55:54.513Z,-5.42
2023-02-05T21:58:21.636Z,-5.49
2023-02-05T22:00:48.644Z,-5.53
2023-02-05T22:03:15.555Z,-5.57
2023-02-05T22:05:42.416Z,-5.60
2023-02-05T22:08:11.895Z,-5.63
2023-02-05T22:10:38.942Z,-5.66
2023-02-05T22:13:06.010Z,-5.69
2023-02-05T22:15:33.242Z,-5.68
2023-02-05T22:18:00.207Z,-5.70
2023-02-05T22:20:27.028Z,-5.70
2023-02-05T22:22:54.132Z,-5.68
2023-02-05T22:25:21.416Z,-5.69
2023-02-05T22:27:48.988Z,-5.70
2023-02-05T22:30:16.559Z,-5.73
2023-02-05T22:32:43.425Z,-5.75
2023-02-05T22:35:10.801Z,-5.75
2023-02-05T22:37:37.591Z,-5.77
2023-02-05T22:40:04.688Z,-5.78
2023-02-05T22:42:33.537Z,-5.80
2023-02-05T22:45:00.668Z,-5.82
2023-02-05T22:47:27.626Z,-5.83
2023-02-05T22:49:54.528Z,-5.84
2023-02-05T22:52:21.536Z,-5.84
2023-02-05T22:54:48.290Z,-5.86
2023-02-05T22:57:15.148Z,-5.86
2023-02-05T22:59:42.072Z,-5.84
2023-02-05T23:02:08.963Z,-5.89
2023-02-05T23:04:35.513Z,-5.90
2023-02-05T23:07:02.392Z,-5.88
2023-02-05T23:09:29.275Z,-5.84
2023-02-05T23:11:56.709Z,-5.83
2023-02-05T23:14:23.905Z,-5.83
2023-02-05T23:16:50.836Z,-5.83
2023-02-05T23:19:22.337Z,-5.84
2023-02-05T23:21:50.177Z,-5.85
2023-02-05T23:24:17.699Z,-5.85
2023-02-05T23:26:46.596Z,-5.83
2023-02-05T23:29:15.624Z,-5.82
2023-02-05T23:31:42.871Z,-5.88
2023-02-05T23:34:09.933Z,-5.89
2023-02-05T23:36:37.751Z,-5.89
2023-02-05T23:39:06.313Z,-5.89
2023-02-05T23:41:40.447Z,-5.90
2023-02-05T23:44:12.904Z,-5.92
2023-02-05T23:46:41.091Z,-5.93
2023-02-05T23:49:09.151Z,-5.92
2023-02-05T23:51:36.719Z,-5.93
2023-02-05T23:54:03.757Z,-5.97
2023-02-05T23:56:30.769Z,-5.99
2023-02-05T23:58:57.656Z,-6.00
